createdAt,value
2023-02-02T00:01:31.812Z,101879.75
2023-02-02T00:04:04.524Z,101869.78
2023-02-02T00:06:37.209Z,101876.63
2023-02-02T00:09:12.437Z,101871.03
2023-02-02T00:11:47.782Z,101865.88
2023-02-02T00:14:20.622Z,101863.09
2023-02-02T00:16:55.899Z,101855.28
2023-02-02T00:19:30.533Z,101857.63
2023-02-02T00:22:03.272Z,101853.59
2023-02-02T00:24:35.922Z,101856.06
2023-02-02T00:27:09.423Z,101855.38
2023-02-02T00:29:41.988Z,101860.06
2023-02-02T00:32:14.634Z,101850.69
2023-02-02T00:34:48.655Z,101862.53
2023-02-02T00:37:21.242Z,101847.69
2023-02-02T00:39:54.345Z,101867.47
2023-02-02T00:42:26.897Z,101865.78
2023-02-02T00:45:17.989Z,101866.66
2023-02-02T00:47:50.730Z,101873.03
2023-02-02T00:50:23.696Z,101873.94
2023-02-02T00:52:58.122Z,101873.94
2023-02-02T00:55:31.045Z,101872.72
2023-02-02T00:58:03.610Z,101887.88
2023-02-02T01:00:37.762Z,101879.19
2023-02-02T01:03:11.891Z,101880.75
2023-02-02T01:05:44.541Z,101879.97
2023-02-02T01:08:17.169Z,101875.59
2023-02-02T01:10:49.658Z,101877.63
2023-02-02T01:13:22.150Z,101876.03
2023-02-02T01:16:00.274Z,101869.47
2023-02-02T01:18:33.348Z,101876.97
2023-02-02T01:21:11.931Z,101894.16
2023-02-02T01:23:44.686Z,101887.78
2023-02-02T01:26:18.145Z,101882.22
2023-02-02T01:28:50.832Z,101864.91
2023-02-02T01:31:23.839Z,101883.13
2023-02-02T01:33:56.565Z,101880.31
2023-02-02T01:36:29.477Z,101881.53
2023-02-02T01:39:02.193Z,101884.00
2023-02-02T01:41:35.089Z,101882.44
2023-02-02T01:45:04.590Z,101893.38
2023-02-02T01:47:47.482Z,101888.38
2023-02-02T01:50:26.822Z,101889.56
2023-02-02T01:53:03.774Z,101886.59
2023-02-02T01:55:39.822Z,101889.56
2023-02-02T01:58:22.420Z,101885.69
2023-02-02T02:00:55.658Z,101894.50
2023-02-02T02:03:33.320Z,101891.25
2023-02-02T02:06:12.831Z,101881.78
2023-02-02T02:09:02.764Z,101876.53
2023-02-02T02:11:36.925Z,101892.16
2023-02-02T02:14:31.757Z,101881.78
2023-02-02T02:17:14.889Z,101880.97
2023-02-02T02:20:27.883Z,101881.00
2023-02-02T02:23:53.001Z,101876.19
2023-02-02T02:26:53.915Z,101873.41
2023-02-02T02:30:24.891Z,101879.00
2023-02-02T02:33:11.129Z,101877.06
2023-02-02T02:35:59.489Z,101882.31
2023-02-02T02:39:00.090Z,101883.47
2023-02-02T02:41:41.577Z,101881.69
2023-02-02T02:44:19.431Z,101886.00
2023-02-02T02:46:53.563Z,101883.66
2023-02-02T02:49:26.140Z,101886.00
2023-02-02T02:51:58.883Z,101889.25
2023-02-02T02:54:50.513Z,101884.91
2023-02-02T02:58:05.013Z,101895.94
2023-02-02T03:00:48.546Z,101901.22
2023-02-02T03:03:58.570Z,101905.13
2023-02-02T03:06:57.674Z,101897.50
2023-02-02T03:09:38.213Z,101882.69
2023-02-02T03:12:10.827Z,101878.22
2023-02-02T03:14:43.413Z,101879.44
2023-02-02T03:17:15.954Z,101880.66
2023-02-02T03:19:48.638Z,101880.66
2023-02-02T03:22:21.190Z,101880.66
2023-02-02T03:24:53.946Z,101877.53
2023-02-02T03:27:28.418Z,101880.88
2023-02-02T03:30:01.138Z,101877.53
2023-02-02T03:32:33.722Z,101874.41
2023-02-02T03:35:07.651Z,101872.84
2023-02-02T03:37:40.257Z,101868.06
2023-02-02T03:40:13.933Z,101864.47
2023-02-02T03:42:46.678Z,101875.19
2023-02-02T03:45:19.359Z,101864.13
2023-02-02T03:47:51.906Z,101874.06
2023-02-02T03:50:25.396Z,101876.88
2023-02-02T03:52:58.105Z,101880.09
2023-02-02T03:55:31.427Z,101887.34
2023-02-02T03:58:03.917Z,101897.59
2023-02-02T04:00:36.623Z,101898.06
2023-02-02T04:03:12.366Z,101907.31
2023-02-02T04:05:48.799Z,101910.00
2023-02-02T04:08:21.721Z,101902.53
2023-02-02T04:10:54.860Z,101916.84
2023-02-02T04:13:27.666Z,101893.38
2023-02-02T04:16:01.196Z,101902.53
2023-02-02T04:18:33.925Z,101903.31
2023-02-02T04:21:08.600Z,101900.97
2023-02-02T04:23:41.089Z,101901.75
2023-02-02T04:26:13.738Z,101898.28
2023-02-02T04:28:46.418Z,101911.34
2023-02-02T04:31:19.625Z,101920.94
2023-02-02T04:33:52.169Z,101908.31
2023-02-02T04:36:25.417Z,101914.25
2023-02-02T04:38:58.089Z,101927.41
2023-02-02T04:41:30.676Z,101931.75
2023-02-02T04:44:03.702Z,101919.13
2023-02-02T04:46:36.372Z,101921.84
2023-02-02T04:49:11.633Z,101926.63
2023-02-02T04:51:44.373Z,101917.50
2023-02-02T04:54:16.970Z,101920.72
2023-02-02T04:56:49.487Z,101920.38
2023-02-02T04:59:22.173Z,101918.03
2023-02-02T05:01:54.898Z,101915.56
2023-02-02T05:04:27.673Z,101915.56
2023-02-02T05:07:00.288Z,101907.31
2023-02-02T05:09:32.868Z,101905.66
2023-02-02T05:12:05.622Z,101909.66
2023-02-02T05:14:38.238Z,101916.00
2023-02-02T05:17:10.823Z,101924.38
2023-02-02T05:19:43.398Z,101924.16
2023-02-02T05:22:16.048Z,101927.72
2023-02-02T05:24:48.601Z,101936.78
2023-02-02T05:27:21.707Z,101940.78
2023-02-02T05:29:54.343Z,101937.22
2023-02-02T05:32:29.841Z,101941.25
2023-02-02T05:35:02.440Z,101933.31
2023-02-02T05:37:35.024Z,101938.44
2023-02-02T05:40:16.870Z,101927.03
2023-02-02T05:42:49.437Z,101928.28
2023-02-02T05:45:23.826Z,101937.00
2023-02-02T05:47:56.695Z,101933.75
2023-02-02T05:50:29.264Z,101936.09
2023-02-02T05:53:02.651Z,101943.34
2023-02-02T05:55:35.332Z,101931.75
2023-02-02T05:58:07.932Z,101935.75
2023-02-02T06:00:40.547Z,101937.78
2023-02-02T06:03:13.429Z,101945.38
2023-02-02T06:05:46.242Z,101947.03
2023-02-02T06:08:18.926Z,101948.59
2023-02-02T06:10:51.654Z,101951.38
2023-02-02T06:13:24.167Z,101945.47
2023-02-02T06:15:56.709Z,101948.69
2023-02-02T06:18:29.414Z,101938.31
2023-02-02T06:21:06.044Z,101945.03
2023-02-02T06:23:38.733Z,101939.19
2023-02-02T06:26:16.464Z,101954.94
2023-02-02T06:28:52.218Z,101955.28
2023-02-02T06:31:25.133Z,101947.59
2023-02-02T06:33:58.956Z,101957.84
2023-02-02T06:36:31.644Z,101957.00
2023-02-02T06:39:05.823Z,101980.00
2023-02-02T06:41:38.718Z,101956.78
2023-02-02T06:44:11.602Z,101956.56
2023-02-02T06:46:44.183Z,101951.31
2023-02-02T06:49:16.790Z,101957.03
2023-02-02T06:51:49.511Z,101963.59
2023-02-02T06:54:22.029Z,101975.78
2023-02-02T06:56:56.090Z,101975.56
2023-02-02T06:59:28.596Z,101978.47
2023-02-02T07:02:01.369Z,101984.59
2023-02-02T07:04:34.029Z,101989.22
2023-02-02T07:07:06.640Z,101992.25
2023-02-02T07:09:39.344Z,101994.34
2023-02-02T07:12:11.925Z,101994.91
2023-02-02T07:14:44.590Z,101993.09
2023-02-02T07:17:17.104Z,101996.91
2023-02-02T07:19:49.827Z,101992.75
2023-02-02T07:22:22.942Z,102004.94
2023-02-02T07:24:55.695Z,101992.16
2023-02-02T07:27:28.350Z,102002.22
2023-02-02T07:30:01.013Z,102010.50
2023-02-02T07:32:33.777Z,101996.84
2023-02-02T07:35:06.723Z,101998.28
2023-02-02T07:37:40.123Z,101997.38
2023-02-02T07:40:13.457Z,102003.72
2023-02-02T07:42:48.163Z,101999.59
2023-02-02T07:45:24.582Z,102003.63
2023-02-02T07:48:00.799Z,102002.72
2023-02-02T07:50:33.480Z,102002.72
2023-02-02T07:53:06.105Z,102002.06
2023-02-02T07:55:38.782Z,102013.78
2023-02-02T07:58:11.661Z,102014.56
2023-02-02T08:00:44.223Z,102017.81
2023-02-02T08:03:17.183Z,102015.47
2023-02-02T08:05:50.926Z,102033.69
2023-02-02T08:08:23.639Z,102027.31
2023-02-02T08:10:56.335Z,102035.72
2023-02-02T08:13:29.012Z,102031.34
2023-02-02T08:16:01.726Z,102038.50
2023-02-02T08:18:35.521Z,102043.31
2023-02-02T08:21:08.844Z,102038.50
2023-02-02T08:23:42.323Z,102044.09
2023-02-02T08:26:28.383Z,102045.66
2023-02-02T08:29:06.019Z,102048.44
2023-02-02T08:31:43.749Z,102045.66
2023-02-02T08:34:16.380Z,102046.44
2023-02-02T08:36:49.015Z,102053.59
2023-02-02T08:39:21.553Z,102055.28
2023-02-02T08:41:57.230Z,102059.63
2023-02-02T08:45:01.163Z,102054.38
2023-02-02T08:47:22.434Z,102060.72
2023-02-02T08:49:55.344Z,102066.31
2023-02-02T08:52:28.045Z,102064.88
2023-02-02T08:55:00.689Z,102068.50
2023-02-02T08:57:34.447Z,102095.09
2023-02-02T09:00:07.970Z,102089.50
2023-02-02T09:02:40.535Z,102098.22
2023-02-02T09:05:13.172Z,102102.25
2023-02-02T09:07:47.258Z,102109.41
2023-02-02T09:10:20.073Z,102111.75
2023-02-02T09:12:52.584Z,102111.41
2023-02-02T09:15:25.444Z,102118.25
2023-02-02T09:17:58.191Z,102124.63
2023-02-02T09:20:30.787Z,102126.97
2023-02-02T09:23:03.310Z,102130.97
2023-02-02T09:25:35.876Z,102134.13
2023-02-02T09:28:08.517Z,102133.34
2023-02-02T09:30:41.105Z,102128.53
2023-02-02T09:33:13.749Z,102138.38
2023-02-02T09:35:46.328Z,102134.03
2023-02-02T09:38:18.960Z,102141.19
2023-02-02T09:40:51.539Z,102148.34
2023-02-02T09:43:59.759Z,102151.03
2023-02-02T09:47:05.755Z,102161.66
2023-02-02T09:50:18.551Z,102160.75
2023-02-02T09:53:25.645Z,102166.47
2023-02-02T09:56:05.829Z,102179.22
2023-02-02T09:58:52.116Z,102174.41
2023-02-02T10:01:38.900Z,102179.56
2023-02-02T10:04:34.562Z,102185.91
2023-02-02T10:07:18.608Z,102187.94
2023-02-02T10:09:59.902Z,102187.94
2023-02-02T10:12:53.680Z,102187.03
2023-02-02T10:15:45.985Z,102187.03
2023-02-02T10:18:45.341Z,102189.81
2023-02-02T10:21:34.959Z,102186.25
2023-02-02T10:24:20.599Z,102188.59
2023-02-02T10:26:57.455Z,102194.97
2023-02-02T10:29:55.867Z,102180.56
2023-02-02T10:32:43.112Z,102179.78
2023-02-02T10:35:49.256Z,102185.91
2023-02-02T10:38:37.892Z,102198.34
2023-02-02T10:41:54.909Z,102192.16
2023-02-02T10:44:45.261Z,102193.72
2023-02-02T10:47:27.561Z,102189.69
2023-02-02T10:50:18.038Z,102193.94
2023-02-02T10:53:02.063Z,102194.38
2023-02-02T10:55:49.378Z,102197.06
2023-02-02T10:58:40.003Z,102204.69
2023-02-02T11:01:13.891Z,102205.91
2023-02-02T11:03:46.715Z,102208.47
2023-02-02T11:06:38.005Z,102221.22
2023-02-02T11:09:42.424Z,102213.94
2023-02-02T11:12:31.272Z,102223.13
2023-02-02T11:15:25.715Z,102210.03
2023-02-02T11:18:33.047Z,102201.97
2023-02-02T11:21:24.593Z,102211.47
2023-02-02T11:24:07.368Z,102206.03
2023-02-02T11:27:00.555Z,102201.84
2023-02-02T11:29:38.944Z,102209.44
2023-02-02T11:32:40.182Z,102196.78
2023-02-02T11:35:26.873Z,102205.75
2023-02-02T11:38:10.690Z,102191.31
2023-02-02T11:41:03.934Z,102211.38
2023-02-02T11:43:56.625Z,102201.72
2023-02-02T11:46:34.529Z,102211.38
2023-02-02T11:49:19.057Z,102197.81
2023-02-02T11:52:22.906Z,102199.66
2023-02-02T11:55:08.647Z,102203.28
2023-02-02T11:58:28.650Z,102194.31
2023-02-02T12:01:03.824Z,102197.69
2023-02-02T12:03:39.842Z,102192.97
2023-02-02T12:06:39.477Z,102195.09
2023-02-02T12:09:22.460Z,102198.47
2023-02-02T12:12:08.575Z,102197.69
2023-02-02T12:14:52.864Z,102192.09
2023-02-02T12:17:45.232Z,102193.66
2023-02-02T12:39:04.554Z,102172.84
2023-02-02T12:42:06.267Z,102179.19
2023-02-02T12:45:19.194Z,102176.75
2023-02-02T12:48:41.071Z,102179.53
2023-02-02T12:51:43.439Z,102171.91
2023-02-02T12:54:47.643Z,102167.22
2023-02-02T12:57:56.328Z,102167.22
2023-02-02T13:01:07.183Z,102169.09
2023-02-02T13:04:05.232Z,102168.44
2023-02-02T13:07:09.317Z,102162.41
2023-02-02T13:10:06.083Z,102165.53
2023-02-02T13:12:49.027Z,102168.00
2023-02-02T13:15:31.719Z,102156.59
2023-02-02T13:18:22.484Z,102161.63
2023-02-02T13:21:05.806Z,102174.38
2023-02-02T13:23:48.488Z,102172.03
2023-02-02T13:26:39.000Z,102177.19
2023-02-02T13:29:11.575Z,102169.69
2023-02-02T13:31:55.348Z,102172.16
2023-02-02T13:34:52.924Z,102179.19
2023-02-02T13:37:50.326Z,102186.16
2023-02-02T13:40:43.201Z,102173.88
2023-02-02T13:43:39.936Z,102169.47
2023-02-02T13:46:34.616Z,102162.78
2023-02-02T13:49:40.151Z,102176.78
2023-02-02T13:52:54.153Z,102172.28
2023-02-02T13:55:48.132Z,102168.06
2023-02-02T13:59:00.735Z,102171.19
2023-02-02T14:01:33.943Z,102172.22
2023-02-02T14:04:22.697Z,102170.19
2023-02-02T14:07:05.932Z,102174.69
2023-02-02T14:09:38.822Z,102169.53
2023-02-02T14:12:11.847Z,102163.25
2023-02-02T14:14:47.107Z,102163.41
2023-02-02T14:17:22.537Z,102175.25
2023-02-02T14:20:01.126Z,102178.50
2023-02-02T14:22:48.560Z,102171.78
2023-02-02T14:25:30.013Z,102186.91
2023-02-02T14:28:10.540Z,102189.03
2023-02-02T14:30:43.073Z,102177.16
2023-02-02T14:33:21.824Z,102185.91
2023-02-02T14:36:01.354Z,102189.63
2023-02-02T14:39:12.036Z,102201.34
2023-02-02T14:42:25.363Z,102196.44
2023-02-02T14:45:12.848Z,102202.69
2023-02-02T14:47:45.276Z,102207.63
2023-02-02T14:50:45.083Z,102211.41
2023-02-02T14:53:37.966Z,102214.22
2023-02-02T14:56:16.691Z,102203.13
2023-02-02T14:59:00.099Z,102215.47
2023-02-02T15:01:35.502Z,102218.59
2023-02-02T15:04:20.169Z,102226.41
2023-02-02T15:06:53.856Z,102218.00
2023-02-02T15:09:36.586Z,102218.34
2023-02-02T15:12:09.103Z,102219.00
2023-02-02T15:15:10.609Z,102221.34
2023-02-02T15:17:55.961Z,102217.66
2023-02-02T15:20:44.882Z,102216.28
2023-02-02T15:23:44.849Z,102225.69
2023-02-02T15:26:36.145Z,102223.34
2023-02-02T15:29:22.061Z,102218.50
2023-02-02T15:31:56.156Z,102217.28
2023-02-02T15:34:46.569Z,102223.63
2023-02-02T15:37:30.616Z,102235.53
2023-02-02T15:40:14.035Z,102224.78
2023-02-02T15:42:57.491Z,102236.31
2023-02-02T15:45:34.960Z,102235.97
2023-02-02T15:48:26.692Z,102232.72
2023-02-02T15:51:04.149Z,102240.03
2023-02-02T15:53:39.409Z,102240.03
2023-02-02T15:56:29.348Z,102241.56
2023-02-02T15:59:01.919Z,102234.09
2023-02-02T16:01:49.789Z,102249.63
2023-02-02T16:04:37.207Z,102244.97
2023-02-02T16:07:27.797Z,102251.78
2023-02-02T16:10:08.708Z,102251.44
2023-02-02T16:12:41.321Z,102250.81
2023-02-02T16:15:25.397Z,102262.78
2023-02-02T16:18:05.269Z,102273.19
2023-02-02T16:20:39.036Z,102268.16
2023-02-02T16:23:25.814Z,102276.09
2023-02-02T16:26:02.382Z,102261.09
2023-02-02T16:28:35.735Z,102271.09
2023-02-02T16:31:10.092Z,102271.09
2023-02-02T16:33:45.189Z,102264.00
2023-02-02T16:36:25.606Z,102275.22
2023-02-02T16:39:00.980Z,102272.41
2023-02-02T16:41:36.117Z,102284.06
2023-02-02T16:44:42.858Z,102282.38
2023-02-02T16:47:27.278Z,102294.47
2023-02-02T16:50:08.747Z,102294.16
2023-02-02T16:53:05.792Z,102292.13
2023-02-02T16:55:50.435Z,102289.09
2023-02-02T16:58:26.917Z,102293.34
2023-02-02T17:01:15.814Z,102305.69
2023-02-02T17:03:54.890Z,102311.72
2023-02-02T17:06:51.383Z,102312.50
2023-02-02T17:09:37.958Z,102313.06
2023-02-02T17:12:32.796Z,102311.03
2023-02-02T17:15:35.736Z,102311.38
2023-02-02T17:18:09.618Z,102315.97
2023-02-02T17:20:42.446Z,102312.03
2023-02-02T17:23:18.415Z,102320.09
2023-02-02T17:25:52.274Z,102314.94
2023-02-02T17:28:27.372Z,102318.97
2023-02-02T17:31:11.891Z,102318.97
2023-02-02T17:33:44.664Z,102319.19
2023-02-02T17:36:17.156Z,102323.88
2023-02-02T17:38:49.876Z,102323.53
2023-02-02T17:41:22.417Z,102318.84
2023-02-02T17:43:55.067Z,102326.00
2023-02-02T17:46:35.127Z,102323.63
2023-02-02T17:49:07.840Z,102324.88
2023-02-02T17:51:43.801Z,102325.31
2023-02-02T17:54:17.178Z,102326.97
2023-02-02T17:56:49.664Z,102324.97
2023-02-02T17:59:22.352Z,102323.06
2023-02-02T18:01:55.643Z,102317.56
2023-02-02T18:04:28.734Z,102321.19
2023-02-02T18:07:01.561Z,102319.16
2023-02-02T18:09:34.282Z,102324.84
2023-02-02T18:12:07.038Z,102326.44
2023-02-02T18:14:39.748Z,102318.47
2023-02-02T18:17:12.306Z,102313.75
2023-02-02T18:19:45.220Z,102319.81
2023-02-02T18:22:18.396Z,102322.59
2023-02-02T18:24:51.181Z,102313.44
2023-02-02T18:27:23.750Z,102316.69
2023-02-02T18:29:56.677Z,102305.16
2023-02-02T18:32:29.447Z,102301.22
2023-02-02T18:35:02.284Z,102309.16
2023-02-02T18:37:36.413Z,102301.66
2023-02-02T18:40:09.713Z,102305.63
2023-02-02T18:42:42.295Z,102296.41
2023-02-02T18:45:14.853Z,102292.50
2023-02-02T18:47:47.386Z,102297.31
2023-02-02T18:50:21.899Z,102283.88
2023-02-02T18:52:56.537Z,102277.94
2023-02-02T18:55:29.308Z,102284.78
2023-02-02T18:58:01.955Z,102291.47
2023-02-02T19:00:34.612Z,102288.44
2023-02-02T19:03:08.146Z,102288.78
2023-02-02T19:05:59.498Z,102292.72
2023-02-02T19:08:33.762Z,102304.00
2023-02-02T19:11:17.359Z,102305.66
2023-02-02T19:13:50.606Z,102300.84
2023-02-02T19:16:32.935Z,102306.34
2023-02-02T19:19:12.794Z,102302.75
2023-02-02T19:21:45.667Z,102304.00
2023-02-02T19:24:18.129Z,102304.69
2023-02-02T19:26:50.736Z,102305.38
2023-02-02T19:29:30.354Z,102301.31
2023-02-02T19:32:15.151Z,102306.03
2023-02-02T19:34:51.602Z,102305.16
2023-02-02T19:37:29.302Z,102304.25
2023-02-02T19:40:10.946Z,102296.09
2023-02-02T19:42:47.093Z,102293.66
2023-02-02T19:45:31.774Z,102286.38
2023-02-02T19:48:19.483Z,102284.59
2023-02-02T19:50:54.744Z,102295.66
2023-02-02T19:53:38.581Z,102301.16
2023-02-02T19:56:27.509Z,102295.03
2023-02-02T19:59:00.216Z,102300.97
2023-02-02T20:01:35.053Z,102293.72
2023-02-02T20:04:15.382Z,102297.16
2023-02-02T20:06:58.689Z,102291.91
2023-02-02T20:09:35.149Z,102300.63
2023-02-02T20:12:28.323Z,102302.06
2023-02-02T20:15:02.200Z,102294.94
2023-02-02T20:17:37.415Z,102299.63
2023-02-02T20:20:26.104Z,102297.97
2023-02-02T20:22:59.280Z,102297.16
2023-02-02T20:25:32.448Z,102284.41
2023-02-02T20:28:29.224Z,102301.53
2023-02-02T20:31:05.610Z,102309.94
2023-02-02T20:33:44.810Z,102297.50
2023-02-02T20:36:41.060Z,102305.00
2023-02-02T20:39:33.186Z,102304.66
2023-02-02T20:42:05.804Z,102305.88
2023-02-02T20:44:38.504Z,102300.75
2023-02-02T20:47:11.422Z,102307.56
2023-02-02T20:49:45.045Z,102313.94
2023-02-02T20:52:23.750Z,102326.38
2023-02-02T20:54:57.032Z,102315.19
2023-02-02T20:57:29.854Z,102314.06
2023-02-02T21:00:02.599Z,102316.88
2023-02-02T21:02:35.329Z,102303.00
2023-02-02T21:05:08.120Z,102314.94
2023-02-02T21:07:41.078Z,102316.97
2023-02-02T21:10:13.751Z,102325.47
2023-02-02T21:12:50.081Z,102315.09
2023-02-02T21:15:25.711Z,102317.06
2023-02-02T21:17:58.312Z,102325.47
2023-02-02T21:20:30.878Z,102324.69
2023-02-02T21:23:04.148Z,102308.81
2023-02-02T21:25:36.780Z,102317.19
2023-02-02T21:28:09.306Z,102314.50
2023-02-02T21:30:42.064Z,102323.34
2023-02-02T21:33:14.706Z,102321.78
2023-02-02T21:35:47.222Z,102331.38
2023-02-02T21:38:19.717Z,102322.31
2023-02-02T21:40:57.640Z,102326.00
2023-02-02T21:43:32.980Z,102325.13
2023-02-02T21:46:18.013Z,102318.72
2023-02-02T21:48:50.763Z,102319.19
2023-02-02T21:51:35.096Z,102329.22
2023-02-02T21:54:24.754Z,102321.97
2023-02-02T21:56:57.431Z,102320.97
2023-02-02T21:59:36.992Z,102329.34
2023-02-02T22:02:44.678Z,102324.88
2023-02-02T22:05:33.384Z,102328.66
2023-02-02T22:08:23.825Z,102328.56
2023-02-02T22:10:56.462Z,102318.38
2023-02-02T22:13:35.268Z,102327.97
2023-02-02T22:16:18.822Z,102315.25
2023-02-02T22:18:51.617Z,102313.66
2023-02-02T22:21:24.561Z,102316.13
2023-02-02T22:24:00.547Z,102311.75
2023-02-02T22:26:34.462Z,102324.94
2023-02-02T22:29:17.832Z,102324.63
2023-02-02T22:31:50.376Z,102325.94
2023-02-02T22:34:23.179Z,102303.56
2023-02-02T22:36:55.732Z,102305.59
2023-02-02T22:39:28.335Z,102304.47
2023-02-02T22:42:00.863Z,102317.53
2023-02-02T22:44:33.530Z,102316.63
2023-02-02T22:47:10.851Z,102319.69
2023-02-02T22:52:39.672Z,102316.97
2023-02-02T22:55:13.656Z,102324.59
2023-02-02T22:57:46.635Z,102321.44
2023-02-02T23:00:27.748Z,102334.19
2023-02-02T23:03:00.969Z,102325.47
2023-02-02T23:05:33.766Z,102325.56
2023-02-02T23:08:06.444Z,102318.41
2023-02-02T23:10:39.230Z,102322.44
2023-02-02T23:13:11.768Z,102321.63
2023-02-02T23:15:44.520Z,102315.72
2023-02-02T23:18:17.082Z,102315.25
2023-02-02T23:20:50.599Z,102301.06
2023-02-02T23:23:23.181Z,102304.19
2023-02-02T23:26:03.377Z,102288.66
2023-02-02T23:28:35.969Z,102286.75
2023-02-02T23:31:08.775Z,102290.66
2023-02-02T23:33:41.494Z,102277.13
2023-02-02T23:36:14.006Z,102256.88
2023-02-02T23:38:46.655Z,102252.88
2023-02-02T23:41:20.360Z,102249.31
2023-02-02T23:43:53.411Z,102237.31
2023-02-02T23:46:26.363Z,102225.81
2023-02-02T23:49:00.665Z,102239.00
2023-02-02T23:51:35.421Z,102246.59
2023-02-02T23:54:12.249Z,102230.38
2023-02-02T23:56:45.120Z,102235.84
2023-02-02T23:59:17.650Z,102250.25
